createdAt,value
2022-11-25T00:01:12.915Z,79.79
2022-11-25T00:04:00.534Z,79.47
2022-11-25T00:06:55.126Z,79.71
2022-11-25T00:09:41.896Z,79.46
2022-11-25T00:12:28.644Z,79.76
2022-11-25T00:15:15.379Z,79.36
2022-11-25T00:18:02.108Z,79.51
2022-11-25T00:20:48.838Z,79.75
2022-11-25T00:23:35.562Z,79.76
2022-11-25T00:26:38.178Z,79.87
2022-11-25T00:29:29.510Z,79.13
2022-11-25T00:32:16.335Z,79.85
2022-11-25T00:35:03.045Z,79.13
2022-11-25T00:37:49.774Z,79.77
2022-11-25T00:40:36.521Z,79.54
2022-11-25T00:43:21.642Z,79.50
2022-11-25T00:46:08.940Z,79.24
2022-11-25T00:48:55.699Z,79.48
2022-11-25T00:51:42.497Z,79.34
2022-11-25T00:54:29.417Z,79.80
2022-11-25T00:57:16.220Z,79.15
2022-11-25T01:00:03.139Z,79.38
2022-11-25T01:02:49.887Z,79.35
2022-11-25T01:05:36.697Z,79.33
2022-11-25T01:08:23.478Z,79.53
2022-11-25T01:11:18.643Z,79.81
2022-11-25T01:14:06.181Z,79.52
2022-11-25T01:16:53.434Z,79.66
2022-11-25T01:19:21.141Z,79.48
2022-11-25T01:21:47.967Z,79.60
2022-11-25T01:24:16.002Z,79.39
2022-11-25T01:26:44.230Z,79.07
2022-11-25T01:29:36.859Z,79.57
2022-11-25T01:32:23.698Z,79.15
2022-11-25T01:35:10.410Z,79.43
2022-11-25T01:37:57.118Z,79.34
2022-11-25T01:40:44.111Z,79.35
2022-11-25T01:43:34.746Z,79.64
2022-11-25T01:46:27.054Z,79.77
2022-11-25T01:49:23.660Z,79.39
2022-11-25T01:52:26.350Z,79.52
2022-11-25T01:55:03.140Z,79.66
2022-11-25T01:57:56.074Z,79.81
2022-11-25T02:00:44.721Z,79.38
2022-11-25T02:03:31.513Z,79.48
2022-11-25T02:06:37.259Z,79.62
2022-11-25T02:09:26.938Z,79.23
2022-11-25T02:12:14.232Z,79.30
2022-11-25T02:15:01.915Z,79.52
2022-11-25T02:17:48.755Z,79.08
2022-11-25T02:20:38.004Z,79.02
2022-11-25T02:23:54.823Z,79.63
2022-11-25T02:26:42.051Z,79.64
2022-11-25T02:29:30.101Z,79.66
2022-11-25T02:32:17.270Z,79.64
2022-11-25T02:35:10.488Z,79.49
2022-11-25T02:37:57.284Z,79.46
2022-11-25T02:40:45.754Z,79.34
2022-11-25T02:43:32.981Z,79.14
2022-11-25T02:46:27.092Z,79.41
2022-11-25T02:49:16.231Z,79.72
2022-11-25T02:52:04.786Z,79.15
2022-11-25T02:54:51.654Z,79.15
2022-11-25T06:58:36.686Z,79.62
2022-11-25T07:01:31.708Z,79.78
2022-11-25T07:04:11.901Z,79.57
2022-11-25T07:06:38.705Z,79.80
2022-11-25T07:09:25.870Z,79.79
2022-11-25T07:12:08.890Z,79.87
2022-11-25T07:14:55.620Z,79.96
2022-11-25T07:17:42.328Z,79.90
2022-11-25T07:20:29.459Z,79.83
2022-11-25T07:23:16.939Z,79.84
2022-11-25T07:26:03.664Z,79.92
2022-11-25T07:28:50.458Z,79.81
2022-11-25T07:31:38.915Z,79.93
2022-11-25T07:34:29.705Z,79.87
2022-11-25T07:37:16.580Z,79.99
2022-11-25T07:40:03.314Z,79.83
2022-11-25T07:42:30.232Z,79.96
2022-11-25T07:45:16.959Z,80.03
2022-11-25T07:48:10.363Z,79.98
2022-11-25T07:50:57.145Z,79.90
2022-11-25T07:53:43.887Z,80.11
2022-11-25T07:56:30.732Z,80.10
2022-11-25T07:59:18.008Z,80.14
2022-11-25T08:02:05.200Z,80.44
2022-11-25T08:04:51.938Z,80.18
2022-11-25T08:07:38.689Z,79.97
2022-11-25T08:10:26.001Z,80.34
2022-11-25T08:13:12.764Z,80.15
2022-11-25T08:15:59.648Z,80.10
2022-11-25T08:18:46.595Z,80.52
2022-11-25T08:21:34.897Z,79.70
2022-11-25T08:24:21.618Z,80.58
2022-11-25T08:27:08.539Z,80.41
2022-11-25T08:29:55.246Z,80.09
2022-11-25T08:32:42.080Z,80.21
2022-11-25T08:35:24.973Z,80.06
2022-11-25T08:37:51.883Z,79.97
2022-11-25T08:40:39.162Z,79.94
2022-11-25T08:43:29.394Z,80.32
2022-11-25T08:46:16.968Z,80.36
2022-11-25T08:49:04.424Z,80.08
2022-11-25T08:51:52.891Z,80.47
2022-11-25T08:54:39.785Z,80.41
2022-11-25T08:57:26.715Z,80.30
2022-11-25T09:00:13.689Z,80.27
2022-11-25T09:03:03.431Z,80.57
2022-11-25T09:05:51.391Z,80.45
2022-11-25T09:08:38.182Z,80.46
2022-11-25T09:11:25.453Z,80.64
2022-11-25T09:14:12.424Z,80.17
2022-11-25T09:16:59.302Z,80.66
2022-11-25T09:19:46.019Z,80.35
2022-11-25T09:22:32.736Z,80.50
2022-11-25T09:25:19.451Z,80.68
2022-11-25T09:28:06.272Z,80.77
2022-11-25T09:30:53.066Z,80.54
2022-11-25T09:33:40.399Z,80.38
2022-11-25T09:36:27.341Z,80.60
2022-11-25T09:39:14.150Z,80.50
2022-11-25T09:42:18.755Z,80.44
2022-11-25T09:45:41.946Z,80.80
2022-11-25T09:48:50.482Z,80.65
2022-11-25T09:51:42.221Z,80.73
2022-11-25T09:54:40.078Z,80.71
2022-11-25T09:57:29.877Z,80.73
2022-11-25T10:00:26.452Z,80.56
2022-11-25T10:03:22.880Z,80.65
2022-11-25T10:06:11.379Z,80.47
2022-11-25T10:09:08.071Z,80.67
2022-11-25T10:12:09.692Z,80.59
2022-11-25T10:15:06.398Z,80.77
2022-11-25T10:17:56.003Z,80.58
2022-11-25T10:20:28.235Z,81.01
2022-11-25T10:23:36.656Z,80.50
2022-11-25T10:26:31.223Z,80.10
2022-11-25T10:29:39.739Z,80.61
2022-11-25T10:32:48.400Z,80.56
2022-11-25T10:35:28.551Z,80.30
2022-11-25T10:38:00.461Z,80.79
2022-11-25T10:40:47.260Z,80.96
2022-11-25T10:43:34.815Z,80.54
2022-11-25T10:47:11.865Z,80.79
2022-11-25T10:50:07.119Z,80.75
2022-11-25T10:53:06.783Z,80.77
2022-11-25T10:55:54.812Z,81.03
2022-11-25T10:58:59.056Z,81.05
2022-11-25T11:01:45.874Z,80.69
2022-11-25T11:04:35.469Z,81.01
2022-11-25T11:07:28.975Z,80.64
2022-11-25T11:10:35.664Z,81.11
2022-11-25T11:13:26.240Z,80.72
2022-11-25T11:16:14.216Z,80.57
2022-11-25T11:19:01.851Z,80.95
2022-11-25T11:21:54.584Z,80.96
2022-11-25T11:24:58.157Z,80.72
2022-11-25T11:27:45.335Z,80.94
2022-11-25T11:30:36.600Z,80.59
2022-11-25T11:33:23.302Z,80.53
2022-11-25T11:36:27.812Z,81.37
2022-11-25T11:39:23.415Z,80.66
2022-11-25T11:42:34.903Z,81.20
2022-11-25T11:45:52.580Z,80.62
2022-11-25T11:48:39.239Z,80.60
2022-11-25T11:51:37.679Z,81.17
2022-11-25T11:54:41.396Z,80.67
2022-11-25T11:57:55.177Z,81.31
2022-11-25T12:00:42.896Z,80.75
2022-11-25T12:03:47.980Z,80.26
2022-11-25T12:06:40.170Z,80.92
2022-11-25T12:09:39.079Z,80.71
2022-11-25T12:12:34.729Z,81.37
2022-11-25T12:15:29.551Z,81.63
2022-11-25T12:18:22.496Z,81.08
2022-11-25T12:21:21.135Z,81.57
2022-11-25T12:24:21.459Z,81.37
2022-11-25T12:27:20.686Z,81.23
2022-11-25T12:30:37.726Z,81.11
2022-11-25T12:33:40.279Z,81.31
2022-11-25T12:36:49.808Z,81.02
2022-11-25T12:39:51.053Z,81.58
2022-11-25T12:42:44.299Z,81.42
2022-11-25T12:45:44.968Z,80.85
2022-11-25T12:48:32.253Z,81.56
2022-11-25T12:51:46.864Z,80.73
2022-11-25T12:54:47.535Z,81.71
2022-11-25T12:57:49.307Z,81.35
2022-11-25T13:00:48.226Z,81.15
2022-11-25T13:03:59.243Z,81.37
2022-11-25T13:07:00.058Z,81.03
2022-11-25T13:10:05.521Z,80.94
2022-11-25T13:13:18.934Z,81.27
2022-11-25T13:16:08.994Z,81.00
2022-11-25T13:19:01.751Z,81.57
2022-11-25T13:21:48.563Z,80.85
2022-11-25T13:24:51.783Z,80.97
2022-11-25T13:27:58.695Z,81.66
2022-11-25T13:30:54.267Z,81.14
2022-11-25T13:33:43.674Z,81.68
2022-11-25T13:36:36.153Z,81.58
2022-11-25T13:39:36.268Z,81.03
2022-11-25T13:42:44.065Z,81.39
2022-11-25T13:45:45.562Z,81.59
2022-11-25T13:48:40.105Z,81.53
2022-11-25T13:51:42.559Z,81.07
2022-11-25T13:54:37.795Z,80.98
2022-11-25T13:57:33.755Z,81.65
2022-11-25T14:00:25.983Z,81.08
2022-11-25T14:03:12.775Z,81.37
2022-11-25T14:05:56.629Z,81.54
2022-11-25T14:09:14.392Z,81.81
2022-11-25T14:12:40.994Z,81.64
2022-11-25T14:15:38.153Z,81.63
2022-11-25T14:19:28.046Z,81.54
2022-11-25T14:22:37.873Z,81.19
2022-11-25T14:25:53.941Z,81.10
2022-11-25T14:28:43.368Z,81.07
2022-11-25T14:31:36.137Z,81.70
2022-11-25T14:35:04.641Z,81.70
2022-11-25T14:38:04.824Z,82.38
2022-11-25T14:41:12.663Z,81.67
2022-11-25T14:44:08.705Z,81.48
2022-11-25T14:47:11.553Z,82.09
2022-11-25T14:50:33.198Z,81.96
2022-11-25T14:53:12.972Z,81.28
2022-11-25T14:55:59.757Z,81.10
2022-11-25T14:58:47.246Z,81.50
2022-11-25T15:01:41.554Z,81.67
2022-11-25T15:04:39.696Z,81.93
2022-11-25T15:07:38.439Z,81.88
2022-11-25T15:10:25.986Z,80.98
2022-11-25T15:13:12.838Z,82.04
2022-11-25T15:16:00.017Z,81.20
2022-11-25T15:18:27.294Z,81.14
2022-11-25T15:21:18.563Z,81.76
2022-11-25T15:24:05.379Z,82.03
2022-11-25T15:26:54.770Z,81.54
2022-11-25T15:29:41.800Z,81.71
2022-11-25T15:32:40.028Z,82.07
2022-11-25T15:35:28.764Z,81.20
2022-11-25T15:38:15.601Z,81.22
2022-11-25T15:41:03.116Z,82.05
2022-11-25T15:43:51.870Z,81.62
2022-11-25T15:46:38.660Z,81.76
2022-11-25T15:49:27.068Z,81.37
2022-11-25T15:52:25.965Z,82.09
2022-11-25T15:55:17.555Z,81.87
2022-11-25T15:58:09.794Z,81.85
2022-11-25T16:00:56.679Z,81.75
2022-11-25T16:03:43.498Z,81.40
2022-11-25T16:06:47.850Z,81.82
2022-11-25T16:09:41.717Z,82.26
2022-11-25T16:12:37.365Z,81.71
2022-11-25T16:15:24.387Z,81.34
2022-11-25T16:18:32.802Z,81.32
2022-11-25T16:21:25.079Z,81.84
2022-11-25T16:24:19.811Z,81.32
2022-11-25T16:27:13.491Z,82.08
2022-11-25T16:30:30.752Z,82.08
2022-11-25T16:33:17.707Z,81.94
2022-11-25T16:36:08.349Z,81.58
2022-11-25T16:38:56.388Z,81.66
2022-11-25T16:41:46.462Z,81.36
2022-11-25T16:44:39.246Z,81.42
2022-11-25T16:47:25.978Z,82.08
2022-11-25T16:50:14.438Z,81.42
2022-11-25T16:53:01.260Z,82.12
2022-11-25T16:55:48.036Z,82.25
2022-11-25T16:58:42.739Z,81.78
2022-11-25T17:01:34.393Z,81.97
2022-11-25T17:04:21.179Z,81.48
2022-11-25T17:07:31.502Z,82.17
2022-11-25T17:10:14.599Z,82.39
2022-11-25T17:13:03.255Z,82.25
2022-11-25T17:15:53.578Z,81.30
2022-11-25T17:18:40.617Z,82.25
2022-11-25T17:21:29.025Z,82.46
2022-11-25T17:24:21.271Z,82.20
2022-11-25T17:27:16.611Z,81.92
2022-11-25T17:30:04.153Z,81.31
2022-11-25T17:32:51.708Z,81.67
2022-11-25T17:35:40.293Z,81.85
2022-11-25T17:38:37.780Z,81.35
2022-11-25T17:41:29.332Z,81.80
2022-11-25T17:44:16.226Z,81.20
2022-11-25T17:47:03.059Z,82.20
2022-11-25T17:49:49.834Z,82.28
2022-11-25T17:52:36.567Z,82.31
2022-11-25T17:55:23.430Z,81.38
2022-11-25T17:58:10.535Z,81.49
2022-11-25T18:00:58.607Z,82.12
2022-11-25T18:03:45.447Z,82.22
2022-11-25T18:06:32.170Z,82.15
2022-11-25T18:09:18.906Z,81.68
2022-11-25T18:12:12.685Z,81.69
2022-11-25T18:14:59.439Z,81.35
2022-11-25T18:17:46.179Z,81.13
2022-11-25T18:20:38.935Z,81.48
2022-11-25T18:23:25.631Z,81.36
2022-11-25T18:26:14.891Z,82.35
2022-11-25T18:29:01.695Z,81.50
2022-11-25T18:31:48.533Z,81.72
2022-11-25T18:34:36.563Z,81.24
2022-11-25T18:37:23.506Z,82.01
2022-11-25T18:40:10.247Z,81.32
2022-11-25T18:42:57.175Z,81.58
2022-11-25T18:45:48.092Z,81.58
2022-11-25T18:48:40.934Z,82.00
2022-11-25T18:51:31.798Z,82.29
2022-11-25T18:54:18.529Z,82.09
2022-11-25T18:57:09.947Z,81.44
2022-11-25T19:00:24.426Z,81.27
2022-11-25T19:03:03.602Z,81.39
2022-11-25T19:05:52.833Z,81.32
2022-11-25T19:08:40.201Z,81.10
2022-11-25T19:11:35.929Z,82.26
2022-11-25T19:14:26.607Z,82.05
2022-11-25T19:17:18.332Z,81.78
2022-11-25T19:20:06.576Z,81.45
2022-11-25T19:22:57.874Z,81.84
2022-11-25T19:25:47.287Z,81.30
2022-11-25T19:28:36.405Z,81.88
2022-11-25T19:31:23.877Z,82.44
2022-11-25T19:34:11.352Z,81.47
2022-11-25T19:36:58.095Z,81.29
2022-11-25T19:39:44.827Z,81.96
2022-11-25T19:42:31.560Z,82.32
2022-11-25T19:45:18.349Z,82.16
2022-11-25T19:48:08.147Z,82.01
2022-11-25T19:50:58.738Z,82.31
2022-11-25T19:53:46.405Z,81.84
2022-11-25T19:56:38.238Z,81.85
2022-11-25T19:59:25.087Z,81.39
2022-11-25T20:02:11.914Z,81.50
2022-11-25T20:04:58.743Z,81.76
2022-11-25T20:07:47.048Z,82.19
2022-11-25T20:10:40.337Z,82.10
2022-11-25T20:13:27.157Z,81.35
2022-11-25T20:16:15.141Z,81.49
2022-11-25T20:19:02.468Z,82.28
2022-11-25T20:21:56.487Z,81.17
2022-11-25T20:24:43.236Z,81.34
2022-11-25T20:27:32.243Z,81.43
2022-11-25T20:30:18.981Z,82.02
2022-11-25T20:33:05.944Z,82.27
2022-11-25T20:35:52.883Z,81.27
2022-11-25T20:38:46.219Z,82.20
2022-11-25T20:41:34.181Z,82.13
2022-11-25T20:44:21.102Z,80.98
2022-11-25T20:47:07.909Z,82.18
2022-11-25T20:49:54.697Z,81.29
2022-11-25T20:52:49.873Z,81.31
2022-11-25T20:55:43.475Z,81.05
2022-11-25T20:58:51.835Z,82.12
2022-11-25T21:01:41.677Z,81.84
2022-11-25T21:04:28.460Z,81.06
2022-11-25T21:07:15.289Z,81.59
2022-11-25T21:10:02.723Z,81.90
2022-11-25T21:12:49.441Z,82.11
2022-11-25T21:15:39.563Z,81.22
2022-11-25T21:18:26.319Z,81.48
2022-11-25T21:21:16.261Z,81.62
2022-11-25T21:24:05.671Z,81.53
2022-11-25T21:26:52.450Z,81.64
2022-11-25T21:29:39.748Z,82.24
2022-11-25T21:32:44.681Z,81.18
2022-11-25T21:35:32.378Z,81.66
2022-11-25T21:38:23.546Z,81.74
2022-11-25T21:41:12.904Z,81.63
2022-11-25T21:44:05.457Z,81.55
2022-11-25T21:46:52.315Z,81.18
2022-11-25T21:49:39.569Z,81.87
2022-11-25T21:52:26.316Z,81.45
2022-11-25T21:55:13.069Z,82.11
2022-11-25T21:58:00.765Z,82.26
2022-11-25T22:00:47.566Z,81.26
2022-11-25T22:03:39.866Z,82.11
2022-11-25T22:06:55.707Z,81.02
2022-11-25T22:09:42.471Z,81.46
2022-11-25T22:12:55.604Z,80.89
2022-11-25T22:15:43.259Z,81.26
2022-11-25T22:18:47.672Z,81.89
2022-11-25T22:21:35.171Z,81.89
2022-11-25T22:24:21.871Z,81.94
2022-11-25T22:27:11.272Z,81.71
2022-11-25T22:29:58.017Z,81.93
2022-11-25T22:32:45.595Z,81.67
2022-11-25T22:35:40.980Z,82.03
2022-11-25T22:38:36.623Z,81.82
2022-11-25T22:41:24.411Z,82.00
2022-11-25T22:44:12.451Z,81.60
2022-11-25T22:46:59.194Z,81.29
2022-11-25T22:49:49.782Z,80.77
2022-11-25T22:52:43.829Z,81.34
2022-11-25T22:55:57.138Z,82.06
2022-11-25T22:58:46.313Z,82.30
2022-11-25T23:01:35.353Z,81.60
2022-11-25T23:04:22.347Z,81.57
2022-11-25T23:07:09.228Z,81.16
2022-11-25T23:09:55.979Z,81.85
2022-11-25T23:12:42.722Z,81.13
2022-11-25T23:15:33.162Z,81.22
2022-11-25T23:18:22.548Z,81.15
2022-11-25T23:21:09.267Z,81.51
2022-11-25T23:23:56.018Z,81.95
2022-11-25T23:26:43.324Z,81.27
2022-11-25T23:29:30.095Z,82.08
2022-11-25T23:32:18.698Z,81.21
2022-11-25T23:35:06.140Z,81.52
2022-11-25T23:37:52.910Z,81.10
2022-11-25T23:40:41.132Z,81.81
2022-11-25T23:43:35.414Z,81.98
2022-11-25T23:46:22.274Z,81.51
2022-11-25T23:49:17.335Z,81.74
2022-11-25T23:52:07.750Z,81.26
2022-11-25T23:55:02.466Z,81.11
2022-11-25T23:57:53.278Z,81.59
